Latest Coastal Weather Observations for Redcliffe

IDQ60701

Issued at 2:25 pm EST Saturday 2 August 2014 (issued every 10 minutes, with the page automatically refreshed every 10 minutes)

About coastal observations | Map of coastal stations | Coastal observations for QLD | Marine services | Other Formats
Station Details ID: 040958 Name: REDCLIFFE Lat: -27.22 Lon: 153.09 Height: 12.6 m
Data from the previous 72 hours. | See also: Recent months at Redcliffe
Date/Time
EST
Temp

°C
Wind Pressure Rain
since 9am
mm
Weather Cloud Vis
km
Sea
Height
m
Swell
Dir
 
Speed
knots
Gust
knots
hPa Trend Height
m
Period
s
Dir
02/02:00pm 17.6 E 13 15 1021.8 - 0.0 - - - - - - -
02/01:30pm 18.1 ESE 11 14 1021.7 - 0.0 - - - - - - -
02/01:00pm 19.7 ESE 12 14 1021.8 - 0.0 - - - - - - -
02/12:30pm 19.1 SSE 9 11 1022.1 - 0.0 - - - - - - -
02/12:00pm 19.2 S 10 12 1022.3 - 0.0 - - - - - - -
02/11:30am 18.4 S 12 14 1022.6 - 0.0 - - - - - - -
02/11:00am 18.0 S 13 17 1023.0 - 0.0 - - - - - - -
02/10:30am 17.5 SSW 9 15 1023.0 - 0.0 - - - - - - -
02/10:00am 16.7 WSW 10 16 1023.2 - 0.0 - - - - - - -
02/09:30am 16.1 SW 14 19 1023.2 - 0.0 - - - - - - -
02/09:00am 15.4 SW 11 16 1023.1 - 0.0 - - - - - - -
02/08:30am 14.7 SW 10 15 1022.8 - 0.0 - - - - - - -
02/08:00am 14.2 SW 11 16 1022.6 - 0.0 - - - - - - -
02/07:30am 13.4 SW 9 14 1022.3 - 0.0 - - - - - - -
02/07:00am 12.3 SW 9 14 1021.9 - 0.0 - - - - - - -
02/06:30am 12.2 SW 8 10 1021.2 - 0.0 - - - - - - -
02/06:00am 13.3 W 7 9 1020.4 - 0.0 - - - - - - -
02/05:30am 13.9 WSW 5 8 1019.7 - 0.0 - - - - - - -
02/05:00am 13.8 WSW 7 10 1019.1 - 0.0 - - - - - - -
02/04:30am 14.7 W 7 12 1018.7 - 0.0 - - - - - - -
02/04:00am 14.2 WSW 9 13 1018.5 - 0.0 - - - - - - -
02/03:30am 15.0 WSW 8 10 1018.6 - 0.0 - - - - - - -
02/03:00am 15.5 W 6 8 1018.3 - 0.0 - - - - - - -
02/02:30am 16.4 WSW 8 12 1018.0 - 0.0 - - - - - - -
02/02:00am 16.8 W 7 9 1017.8 - 0.0 - - - - - - -
02/01:30am 17.6 WSW 9 14 1017.6 - 0.0 - - - - - - -
02/01:00am 18.1 WSW 7 10 1017.5 - 0.0 - - - - - - -
02/12:30am 18.9 W 8 11 1017.1 - 0.0 - - - - - - -
02/12:00am 19.0 W 8 11 1016.6 - 0.0 - - - - - - -
 
Date/Time
EST
Temp

°C
Wind Pressure Rain
since 9am
mm
Weather Cloud Vis
km
Sea
Height
m
Swell
Dir
 
Speed
knots
Gust
knots
hPa Trend Height
m
Period
s
Dir
01/11:30pm 19.7 W 8 11 1016.1 - 0.0 - - - - - - -
01/11:00pm 19.5 W 9 12 1016.0 - 0.0 - - - - - - -
01/10:30pm 18.1 W 7 9 1015.5 - 0.0 - - - - - - -
01/10:00pm 17.7 WNW 8 10 1015.2 - 0.0 - - - - - - -
01/09:30pm 18.5 NNW 7 10 1014.4 - 0.0 - - - - - - -
01/09:00pm 19.0 NNW 7 9 1014.1 - 0.0 - - - - - - -
01/08:30pm 18.9 NW 6 8 1014.1 - 0.0 - - - - - - -
01/08:00pm 19.6 NNW 8 11 1013.6 - 0.0 - - - - - - -
01/07:30pm 19.2 NNW 7 10 1013.4 - 0.0 - - - - - - -
01/07:00pm 19.7 N 10 13 1013.0 - 0.0 - - - - - - -
01/06:30pm 20.3 N 9 11 1012.7 - 0.0 - - - - - - -
01/06:00pm 21.3 N 16 18 1012.1 - 0.0 - - - - - - -
01/05:30pm 22.6 N 13 15 1011.8 - 0.0 - - - - - - -
01/05:00pm 24.3 NNW 6 8 1011.4 - 0.0 - - - - - - -
01/04:30pm 26.4 NNW 9 12 1011.4 - 0.0 - - - - - - -
01/04:00pm 26.8 NNW 8 12 1011.3 - 0.0 - - - - - - -
01/03:30pm 27.7 NW 11 15 1011.2 - 0.0 - - - - - - -
01/03:00pm 27.0 NNW 11 16 1011.3 - 0.0 - - - - - - -
01/02:30pm 27.2 NNW 10 15 1011.6 - 0.0 - - - - - - -
01/02:00pm 26.7 NNW 10 16 1011.8 - 0.0 - - - - - - -
01/01:30pm 27.4 NNW 11 16 1012.3 - 0.0 - - - - - - -
01/01:00pm 26.8 N 10 15 1012.6 - 0.0 - - - - - - -
01/12:30pm 27.1 NNW 11 16 1013.1 - 0.0 - - - - - - -
01/12:00pm 26.5 NNW 11 15 1013.8 - 0.0 - - - - - - -
01/11:30am 26.0 N 9 14 1014.4 - 0.0 - - - - - - -
01/11:00am 24.8 N 11 16 1015.1 - 0.0 - - - - - - -
01/10:30am 23.5 ENE 7 8 1015.4 - 0.0 - - - - - - -
01/10:00am 21.4 NNE 8 10 1015.8 - 0.0 - - - - - - -
01/09:30am 20.8 NNE 10 11 1016.2 - 0.0 - - - - - - -
01/09:00am 19.4 NNE 9 9 1016.4 - 0.0 - - - - - - -
01/08:30am 18.8 NNE 7 8 1016.5 - 0.0 - - - - - - -
01/08:00am 18.0 N 7 8 1016.4 - 0.0 - - - - - - -
01/07:30am 17.4 N 8 9 1016.4 - 0.0 - - - - - - -
01/07:00am 16.6 N 6 7 1016.3 - 0.0 - - - - - - -
01/06:30am 16.3 N 7 9 1016.2 - 0.0 - - - - - - -
01/06:00am 15.6 N 5 6 1016.2 - 0.0 - - - - - - -
01/05:30am 16.1 NNW 6 8 1016.0 - 0.0 - - - - - - -
01/05:00am 16.0 N 7 10 1015.9 - 0.0 - - - - - - -
01/04:30am 16.1 N 9 11 1015.6 - 0.0 - - - - - - -
01/04:00am 16.0 N 9 10 1015.7 - 0.0 - - - - - - -
01/03:30am 16.0 N 7 10 1015.7 - 0.0 - - - - - - -
01/03:00am 16.2 N 8 10 1015.8 - 0.0 - - - - - - -
01/02:30am 16.1 N 9 11 1016.2 - 0.0 - - - - - - -
01/02:00am 16.1 N 9 12 1016.6 - 0.0 - - - - - - -
01/01:30am 16.4 N 8 12 1016.8 - 0.0 - - - - - - -
01/01:00am 16.6 N 9 10 1017.0 - 0.0 - - - - - - -
01/12:30am 16.7 N 10 14 1017.3 - 0.0 - - - - - - -
01/12:00am 16.8 N 9 11 1017.6 - 0.0 - - - - - - -
 
Date/Time
EST
Temp

°C
Wind Pressure Rain
since 9am
mm
Weather Cloud Vis
km
Sea
Height
m
Swell
Dir
 
Speed
knots
Gust
knots
hPa Trend Height
m
Period
s
Dir
31/11:30pm 16.9 NNW 8 10 1017.7 - 0.0 - - - - - - -
31/11:00pm 17.1 NNW 8 11 1017.7 - 0.0 - - - - - - -
31/10:30pm 17.6 N 9 12 1017.8 - 0.0 - - - - - - -
31/10:00pm 17.5 N 9 13 1017.7 - 0.0 - - - - - - -
31/09:30pm 17.4 N 8 10 1017.7 - 0.0 - - - - - - -
31/09:00pm 17.4 N 8 10 1017.7 - 0.0 - - - - - - -
31/08:30pm 18.0 NNW 8 10 1017.7 - 0.0 - - - - - - -
31/08:00pm 18.2 N 11 15 1017.5 - 0.0 - - - - - - -
31/07:30pm 18.8 N 14 18 1016.9 - 0.0 - - - - - - -
31/07:00pm 19.0 N 15 18 1016.7 - 0.0 - - - - - - -
31/06:30pm 19.1 N 14 16 1016.4 - 0.0 - - - - - - -
31/06:00pm 19.2 N 14 15 1016.1 - 0.0 - - - - - - -
31/05:30pm 19.8 N 15 17 1016.0 - 0.0 - - - - - - -
31/05:00pm 20.2 NNE 13 15 1015.9 - 0.0 - - - - - - -
31/04:30pm 20.8 NNE 16 17 1015.8 - 0.0 - - - - - - -
31/04:00pm 21.2 NNE 15 18 1015.6 - 0.0 - - - - - - -
31/03:30pm 21.6 NNE 13 15 1015.8 - 0.0 - - - - - - -
31/03:00pm 22.0 NE 14 16 1015.9 - 0.0 - - - - - - -
31/02:30pm 21.0 NE 15 18 1016.2 - 0.0 - - - - - - -
31/02:00pm 21.9 NE 16 18 1016.5 - 0.0 - - - - - - -
31/01:30pm 22.1 NE 15 17 1017.0 - 0.0 - - - - - - -
31/01:00pm 21.5 NE 13 15 1017.5 - 0.0 - - - - - - -
31/12:30pm 22.2 NE 11 14 1018.4 - 0.0 - - - - - - -
31/12:00pm 22.6 NE 9 11 1019.0 - 0.0 - - - - - - -
31/11:30am 22.5 NE 6 8 1019.7 - 0.0 - - - - - - -
31/11:00am 21.1 NE 5 6 1020.3 - 0.0 - - - - - - -
31/10:30am 18.5 NNE 6 7 1021.0 - 0.0 - - - - - - -
31/10:00am 17.3 NNE 7 8 1021.6 - 0.0 - - - - - - -
31/09:30am 17.2 N 3 4 1021.8 - 0.0 - - - - - - -
31/09:00am 15.8 NNW 5 6 1021.8 - 0.0 - - - - - - -
31/08:30am 13.3 WNW 5 6 1021.7 - 0.0 - - - - - - -
31/08:00am 10.4 WNW 6 7 1021.4 - 0.0 - - - - - - -
31/07:30am 9.1 WNW 5 7 1021.1 - 0.0 - - - - - - -
31/07:00am 8.2 W 1 4 1020.8 - 0.0 - - - - - - -
31/06:30am 8.3 WSW 4 5 1020.6 - 0.0 - - - - - - -
31/06:00am 8.0 WSW 2 4 1020.4 - 0.0 - - - - - - -
31/05:30am 7.9 CALM 0 4 1020.3 - 0.0 - - - - - - -
31/05:00am 8.6 SSW 3 4 1020.2 - 0.0 - - - - - - -
31/04:30am 9.0 S 5 7 1020.0 - 0.0 - - - - - - -
31/04:00am 9.0 SW 5 6 1019.9 - 0.0 - - - - - - -
31/03:30am 8.9 SW 5 7 1019.8 - 0.0 - - - - - - -
31/03:00am 9.6 WSW 5 7 1019.8 - 0.0 - - - - - - -
31/02:30am 10.5 N 5 6 1019.6 - 0.0 - - - - - - -
31/02:00am 10.8 NW 4 4 1019.9 - 0.0 - - - - - - -
31/01:30am 10.6 W 2 5 1020.1 - 0.0 - - - - - - -
31/01:00am 11.5 NW 4 5 1020.2 - 0.0 - - - - - - -
31/12:30am 11.8 WNW 5 6 1020.3 - 0.0 - - - - - - -
31/12:00am 12.3 NNW 4 5 1020.5 - 0.0 - - - - - - -
 
Date/Time
EST
Temp

°C
Wind Pressure Rain
since 9am
mm
Weather Cloud Vis
km
Sea
Height
m
Swell
Dir
 
Speed
knots
Gust
knots
hPa Trend Height
m
Period
s
Dir
30/11:30pm 13.4 NNW 4 5 1020.5 - 0.0 - - - - - - -
30/11:00pm 13.0 WSW 3 5 1020.6 - 0.0 - - - - - - -
30/10:30pm 13.3 WNW 4 4 1020.9 - 0.0 - - - - - - -
30/10:00pm 15.1 N 3 4 1020.8 - 0.0 - - - - - - -
30/09:30pm 14.9 N 5 6 1020.8 - 0.0 - - - - - - -
30/09:00pm 16.4 N 5 6 1020.7 - 0.0 - - - - - - -
30/08:30pm 16.4 NNW 4 5 1020.7 - 0.0 - - - - - - -
30/08:00pm 16.8 N 5 6 1020.6 - 0.0 - - - - - - -
30/07:30pm 17.5 N 5 6 1020.4 - 0.0 - - - - - - -
30/07:00pm 17.5 NNE 4 4 1020.3 - 0.0 - - - - - - -
30/06:30pm 18.6 NNE 4 4 1019.9 - 0.0 - - - - - - -
30/06:00pm 18.8 N 6 7 1019.4 - 0.0 - - - - - - -
30/05:30pm 19.2 N 7 10 1019.2 - 0.0 - - - - - - -
30/05:00pm 20.0 NE 10 11 1019.0 - 0.0 - - - - - - -
30/04:30pm 20.7 NE 9 11 1018.9 - 0.0 - - - - - - -
30/04:00pm 20.9 ENE 11 13 1018.7 - 0.0 - - - - - - -
30/03:30pm 20.7 E 8 9 1018.5 - 0.0 - - - - - - -
30/03:00pm 20.1 SSE 6 7 1018.5 - 0.0 - - - - - - -
30/02:30pm 20.4 SSE 7 7 1018.5 - 0.0 - - - - - - -

Other Formats:

Comma delimited format used in spreadsheet applications
http://www.bom.gov.au/fwo/IDQ60701/IDQ60701.95591.axf

JavaScript Object Notation format (JSON) in row-major order
http://www.bom.gov.au/fwo/IDQ60701/IDQ60701.95591.json